Time;durP1;ratioP1;P1;durP2;ratioP2;P2;SDS_P1;SDS_P2;PMS_P1;PMS_P2;Temp;Humidity;BMP_temperature;BMP_pressure;BME280_temperature;BME280_humidity;BME280_pressure;Samples;Min_cycle;Max_cycle;Signal;HPM_P1;HPM_P2
2022/10/10 00:02:17;;;;;;;29.85;17.37;;;;;;;1.97;100.00;99038.09;1745809;82;20901;-83
2022/10/10 00:04:43;;;;;;;33.55;16.62;;;;;;;2.02;100.00;99043.66;1765082;81;21534;-84
2022/10/10 00:07:09;;;;;;;25.50;15.58;;;;;;;2.05;100.00;99039.74;1765186;81;20892;-86
2022/10/10 00:09:35;;;;;;;28.90;16.37;;;;;;;2.07;100.00;99037.20;1765560;81;20947;-86
2022/10/10 00:12:01;;;;;;;34.55;18.73;;;;;;;2.10;100.00;99031.44;1765411;81;21625;-84
2022/10/10 00:14:26;;;;;;;30.00;16.30;;;;;;;2.10;100.00;99034.12;1765429;81;20935;-84
2022/10/10 00:16:53;;;;;;;27.98;15.13;;;;;;;2.13;100.00;99031.55;1765167;81;21258;-84
2022/10/10 00:19:18;;;;;;;26.27;15.50;;;;;;;2.14;100.00;99028.70;1763418;81;20853;-86
2022/10/10 00:21:44;;;;;;;24.37;15.08;;;;;;;2.11;100.00;99028.25;1763743;81;20980;-84
2022/10/10 00:24:10;;;;;;;27.07;15.88;;;;;;;2.06;100.00;99026.20;1745761;82;20855;-86
2022/10/10 00:26:36;;;;;;;24.37;13.20;;;;;;;1.98;100.00;99025.86;1763696;81;20980;-85
2022/10/10 00:29:02;;;;;;;23.38;13.22;;;;;;;1.95;100.00;99016.06;1745868;82;21074;-84
2022/10/10 00:31:28;;;;;;;27.75;14.47;;;;;;;1.95;100.00;99022.23;1763656;81;20951;-84
2022/10/10 00:33:54;;;;;;;22.35;12.93;;;;;;;1.93;100.00;99014.93;1763535;81;20968;-83
2022/10/10 00:36:20;;;;;;;22.02;14.07;;;;;;;1.94;100.00;99015.75;1763735;81;20941;-87
2022/10/10 00:38:46;;;;;;;26.17;16.02;;;;;;;1.96;100.00;99007.84;1763465;81;20944;-86
2022/10/10 00:41:12;;;;;;;22.67;13.53;;;;;;;1.98;100.00;99011.67;1763591;81;21344;-84
2022/10/10 00:43:37;;;;;;;28.38;14.65;;;;;;;1.90;100.00;99014.52;1733152;81;20996;-86
2022/10/10 00:46:04;;;;;;;29.95;15.10;;;;;;;1.87;100.00;99009.03;1776889;80;20969;-83
2022/10/10 00:48:36;;;;;;;27.95;14.80;;;;;;;1.84;100.00;99002.77;1745608;81;21390;-86
2022/10/10 00:51:07;;;;;;;28.30;14.18;;;;;;;1.82;100.00;99003.48;1746032;81;21060;-83
2022/10/10 00:53:40;;;;;;;25.72;14.18;;;;;;;1.81;100.00;98999.17;1745708;81;21036;-86
2022/10/10 00:56:06;;;;;;;24.67;13.58;;;;;;;1.81;100.00;98999.68;1745819;82;21450;-86
2022/10/10 00:58:32;;;;;;;25.10;13.72;;;;;;;1.78;100.00;98996.05;1745707;81;20885;-86
2022/10/10 01:00:58;;;;;;;30.77;17.23;;;;;;;1.79;100.00;98997.70;1716681;82;21267;-86
2022/10/10 01:03:24;;;;;;;27.48;15.60;;;;;;;1.79;100.00;98999.03;1746215;81;20875;-86
2022/10/10 01:05:50;;;;;;;25.37;14.13;;;;;;;1.83;100.00;98992.28;1770500;81;21206;-83
2022/10/10 01:08:16;;;;;;;28.95;16.07;;;;;;;1.80;100.00;98991.35;1753953;81;21523;-83
2022/10/10 01:11:17;;;;;;;31.65;15.00;;;;;;;1.75;100.00;98993.27;1754228;81;21047;-83
2022/10/10 01:14:10;;;;;;;31.95;18.20;;;;;;;1.73;100.00;98989.16;1750485;81;21025;-84
2022/10/10 01:16:47;;;;;;;22.82;12.80;;;;;;;1.65;100.00;98986.14;1745897;82;21024;-85
2022/10/10 01:19:41;;;;;;;31.10;13.75;;;;;;;1.67;100.00;98982.23;1715836;82;21670;-86
2022/10/10 01:22:27;;;;;;;25.15;14.63;;;;;;;1.68;100.00;98981.22;1734074;81;20988;-84
2022/10/10 01:25:28;;;;;;;67.80;27.67;;;;;;;1.65;100.00;98979.47;1734540;82;20975;-83
2022/10/10 01:28:08;;;;;;;56.75;25.75;;;;;;;1.64;100.00;98975.14;1734067;82;21090;-85
2022/10/10 01:30:34;;;;;;;27.00;15.70;;;;;;;1.63;100.00;98978.33;1734094;82;21066;-83
2022/10/10 01:33:13;;;;;;;24.85;14.85;;;;;;;1.58;100.00;98979.42;1734062;82;21134;-83
2022/10/10 01:35:52;;;;;;;;;;;;;;;1.58;100.00;98974.59;1736818;82;21055;-85
2022/10/10 01:38:37;;;;;;;23.00;12.13;;;;;;;1.64;100.00;98975.97;1734183;82;20422;-82
2022/10/10 01:41:13;;;;;;;22.75;12.47;;;;;;;1.70;100.00;98971.14;1734141;82;21507;-84
2022/10/10 01:43:39;;;;;;;24.05;13.03;;;;;;;1.75;100.00;98968.40;1734135;82;21038;-83
2022/10/10 01:46:16;;;;;;;23.22;12.10;;;;;;;1.78;100.00;98960.80;1734385;82;20976;-82
2022/10/10 01:48:45;;;;;;;31.35;15.93;;;;;;;1.80;100.00;98961.44;1702784;82;21077;-86
2022/10/10 01:51:36;;;;;;;45.60;17.27;;;;;;;1.84;100.00;98960.52;1734565;82;21004;-82
2022/10/10 01:54:31;;;;;;;38.15;17.37;;;;;;;1.87;100.00;98961.44;1733139;82;21047;-83
2022/10/10 01:57:20;;;;;;;39.10;17.10;;;;;;;1.90;100.00;98963.22;1733920;82;20999;-85
2022/10/10 02:00:03;;;;;;;38.75;17.48;;;;;;;1.99;100.00;98954.50;1734351;82;21888;-85
2022/10/10 02:02:51;;;;;;;25.12;13.83;;;;;;;2.05;100.00;98956.37;1733729;81;21050;-83
2022/10/10 02:05:35;;;;;;;177.62;54.08;;;;;;;2.13;100.00;98951.33;1733722;82;21484;-83
2022/10/10 02:08:28;;;;;;;174.30;61.37;;;;;;;2.17;100.00;98949.91;1733460;82;21024;-83
2022/10/10 02:11:02;;;;;;;201.80;73.97;;;;;;;2.21;100.00;98949.80;1733637;82;21515;-85
2022/10/10 02:13:38;;;;;;;162.55;57.98;;;;;;;2.23;100.00;98944.58;1733292;82;21808;-85
2022/10/10 02:16:07;;;;;;;123.78;50.88;;;;;;;2.24;100.00;98944.89;1733522;82;21008;-83
2022/10/10 02:18:33;;;;;;;104.97;43.23;;;;;;;2.25;100.00;98943.86;1752427;81;20960;-85
2022/10/10 02:21:01;;;;;;;91.00;33.78;;;;;;;2.24;100.00;98945.41;1764723;81;21400;-85
2022/10/10 02:23:27;;;;;;;80.75;30.40;;;;;;;2.21;100.00;98941.78;1764253;81;21472;-85
2022/10/10 02:25:54;;;;;;;81.17;28.27;;;;;;;2.17;100.00;98945.91;1764157;81;21171;-85
2022/10/10 02:28:37;;;;;;;67.85;26.52;;;;;;;2.17;100.00;98947.23;1762957;81;20966;-85
2022/10/10 02:31:08;;;;;;;56.95;23.25;;;;;;;2.17;100.00;98942.71;1762180;81;21038;-83
2022/10/10 02:33:42;;;;;;;51.53;19.87;;;;;;;2.18;100.00;98934.17;1762977;81;21403;-86
2022/10/10 02:36:08;;;;;;;42.30;19.25;;;;;;;2.21;100.00;98929.74;1763321;81;20966;-83
2022/10/10 02:38:34;;;;;;;49.58;21.17;;;;;;;2.19;100.00;98930.47;1762153;81;21163;-83
2022/10/10 02:41:02;;;;;;;35.45;18.32;;;;;;;2.19;100.00;98929.95;1763276;81;20878;-83
2022/10/10 02:43:28;;;;;;;31.40;16.55;;;;;;;2.18;100.00;98930.16;1762891;81;20985;-82
2022/10/10 02:45:54;;;;;;;30.45;17.48;;;;;;;2.20;100.00;98929.44;1763340;81;21064;-86
2022/10/10 02:48:20;;;;;;;112.70;37.35;;;;;;;2.23;100.00;98927.20;1721098;82;20913;-86
2022/10/10 02:50:46;;;;;;;112.10;41.65;;;;;;;2.23;100.00;98925.04;1734521;82;21092;-82
2022/10/10 02:53:12;;;;;;;44.77;20.68;;;;;;;2.20;100.00;98924.09;1702876;82;20964;-85
2022/10/10 02:55:38;;;;;;;32.13;15.32;;;;;;;2.16;100.00;98922.86;1734319;82;20913;-82
2022/10/10 02:58:04;;;;;;;27.05;13.85;;;;;;;2.14;100.00;98923.08;1734295;82;20928;-83
2022/10/10 03:00:30;;;;;;;26.52;14.35;;;;;;;2.13;100.00;98923.25;1734388;82;20980;-83
2022/10/10 03:02:56;;;;;;;26.07;13.08;;;;;;;2.13;100.00;98924.59;1734272;82;20924;-83
2022/10/10 03:05:22;;;;;;;24.05;11.95;;;;;;;2.12;100.00;98920.27;1761047;81;20880;-83
2022/10/10 03:07:47;;;;;;;24.92;11.75;;;;;;;2.10;100.00;98919.14;1764317;81;21007;-85
2022/10/10 03:10:13;;;;;;;22.98;11.50;;;;;;;2.08;100.00;98913.70;1732419;81;21558;-86
2022/10/10 03:12:39;;;;;;;20.23;10.98;;;;;;;2.10;100.00;98921.81;1764647;81;20971;-85
2022/10/10 03:15:06;;;;;;;20.12;11.12;;;;;;;2.06;100.00;98919.77;1764645;81;21141;-83
2022/10/10 03:17:32;;;;;;;18.87;10.40;;;;;;;2.04;100.00;98919.95;1758626;81;21054;-83
2022/10/10 03:19:58;;;;;;;43.60;17.20;;;;;;;1.98;100.00;98909.56;1733992;82;20995;-83
2022/10/10 03:22:24;;;;;;;94.20;37.75;;;;;;;2.04;100.00;98916.45;1734236;82;20991;-83
2022/10/10 03:24:49;;;;;;;73.12;31.80;;;;;;;2.02;100.00;98911.31;1734449;82;20927;-83
2022/10/10 03:27:15;;;;;;;35.25;18.90;;;;;;;2.01;100.00;98904.32;1734205;82;21159;-85
2022/10/10 03:29:41;;;;;;;32.67;13.95;;;;;;;2.01;100.00;98908.33;1734046;82;20955;-83
2022/10/10 03:32:07;;;;;;;24.47;11.33;;;;;;;2.04;100.00;98904.42;1734276;81;20872;-82
2022/10/10 03:34:33;;;;;;;25.77;12.33;;;;;;;2.06;100.00;98909.08;1733995;82;20955;-82
2022/10/10 03:36:59;;;;;;;24.50;11.30;;;;;;;2.09;100.00;98905.47;1734461;82;20984;-83
2022/10/10 03:39:25;;;;;;;20.00;12.30;;;;;;;2.13;100.00;98904.02;1733834;82;21147;-84
2022/10/10 03:41:51;;;;;;;22.85;12.35;;;;;;;2.16;100.00;98902.30;1734421;82;20959;-83
2022/10/10 03:44:17;;;;;;;25.75;13.68;;;;;;;2.22;100.00;98903.31;1703052;82;20884;-82
2022/10/10 03:46:42;;;;;;;20.52;13.00;;;;;;;2.27;100.00;98902.19;1734331;82;21419;-83
2022/10/10 03:49:08;;;;;;;22.90;11.95;;;;;;;2.28;100.00;98902.50;1734054;82;21572;-82
2022/10/10 03:51:34;;;;;;;18.50;11.25;;;;;;;2.25;100.00;98895.72;1734290;82;21301;-85
2022/10/10 03:54:00;;;;;;;22.87;12.50;;;;;;;2.24;100.00;98898.60;1734080;82;21542;-85
2022/10/10 03:56:26;;;;;;;19.62;11.68;;;;;;;2.24;100.00;98895.92;1734313;82;20927;-84
2022/10/10 03:58:52;;;;;;;19.82;11.08;;;;;;;2.25;100.00;98892.22;1734039;82;21509;-85
2022/10/10 04:01:18;;;;;;;18.65;11.43;;;;;;;2.22;100.00;98893.46;1734188;82;20885;-82
2022/10/10 04:03:44;;;;;;;16.73;10.70;;;;;;;2.15;100.00;98883.27;1740514;81;20934;-85
2022/10/10 04:06:10;;;;;;;19.67;11.03;;;;;;;2.07;100.00;98886.14;1764600;81;20959;-82
2022/10/10 04:08:36;;;;;;;16.73;10.23;;;;;;;2.04;100.00;98889.20;1764337;81;21086;-85
2022/10/10 04:11:01;;;;;;;17.15;10.38;;;;;;;2.01;100.00;98883.45;1764612;81;20931;-83
2022/10/10 04:13:28;;;;;;;22.52;11.57;;;;;;;2.02;100.00;98892.59;1764465;81;20967;-83
2022/10/10 04:15:54;;;;;;;20.08;10.05;;;;;;;2.02;100.00;98901.95;1764583;81;21151;-85
2022/10/10 04:18:21;;;;;;;18.35;11.73;;;;;;;1.98;100.00;98890.86;1748314;81;20971;-84
2022/10/10 04:20:47;;;;;;;17.75;11.43;;;;;;;1.92;100.00;98894.84;1733920;82;21448;-86
2022/10/10 04:23:13;;;;;;;23.50;11.97;;;;;;;1.87;100.00;98898.11;1733988;82;20888;-83
2022/10/10 04:25:40;;;;;;;21.62;10.63;;;;;;;1.84;100.00;98891.02;1734216;82;20933;-85
2022/10/10 04:28:06;;;;;;;31.90;12.88;;;;;;;1.83;100.00;98889.38;1734139;82;21232;-85
2022/10/10 04:30:33;;;;;;;25.80;16.10;;;;;;;1.79;100.00;98886.78;1702945;82;20931;-86
2022/10/10 04:32:59;;;;;;;21.97;13.45;;;;;;;1.75;100.00;98888.23;1703122;82;21059;-85
2022/10/10 04:35:25;;;;;;;21.60;13.30;;;;;;;1.71;100.00;98886.48;1679833;82;20935;-86
2022/10/10 04:37:51;;;;;;;16.85;12.13;;;;;;;1.69;100.00;98881.83;1734233;82;21003;-85
2022/10/10 04:40:17;;;;;;;24.52;15.20;;;;;;;1.69;100.00;98882.66;1734281;82;21802;-85
2022/10/10 04:42:43;;;;;;;36.48;21.50;;;;;;;1.69;100.00;98888.00;1734277;81;20869;-86
2022/10/10 04:45:09;;;;;;;30.40;20.12;;;;;;;1.66;100.00;98880.91;1734300;82;20907;-83
2022/10/10 04:47:35;;;;;;;31.85;20.25;;;;;;;1.66;100.00;98884.92;1734219;82;21035;-83
2022/10/10 04:50:01;;;;;;;29.55;21.48;;;;;;;1.65;100.00;98873.92;1734196;82;20872;-83
2022/10/10 04:52:27;;;;;;;34.05;22.05;;;;;;;1.65;100.00;98877.42;1733899;82;21402;-85
2022/10/10 04:54:53;;;;;;;30.75;19.27;;;;;;;1.64;100.00;98878.96;1734124;82;21573;-83
2022/10/10 04:57:19;;;;;;;31.77;18.27;;;;;;;1.64;100.00;98882.97;1734388;82;20884;-86
2022/10/10 04:59:45;;;;;;;25.65;15.55;;;;;;;1.64;100.00;98876.29;1702886;82;21484;-83
2022/10/10 05:02:11;;;;;;;23.83;14.33;;;;;;;1.65;100.00;98878.75;1739718;81;20916;-85
2022/10/10 05:04:36;;;;;;;20.30;14.83;;;;;;;1.65;100.00;98870.73;1754557;81;21148;-83
2022/10/10 05:07:02;;;;;;;25.97;16.05;;;;;;;1.64;100.00;98874.95;1736674;80;21025;-85
2022/10/10 05:09:28;;;;;;;29.87;15.30;;;;;;;1.68;100.00;98874.84;1743126;80;20900;-85
2022/10/10 05:11:54;;;;;;;20.17;12.65;;;;;;;1.70;100.00;98873.61;1755162;80;21555;-83
2022/10/10 05:14:20;;;;;;;25.35;13.78;;;;;;;1.72;100.00;98874.77;1757615;80;20898;-85
2022/10/10 05:16:46;;;;;;;36.83;13.98;;;;;;;1.75;100.00;98873.53;1752800;80;21180;-83
2022/10/10 05:19:12;;;;;;;26.07;13.45;;;;;;;1.79;100.00;98866.23;1758650;80;20972;-85
2022/10/10 05:21:38;;;;;;;22.35;12.53;;;;;;;1.84;100.00;98869.12;1762378;80;21499;-85
2022/10/10 05:24:04;;;;;;;23.22;11.90;;;;;;;1.85;100.00;98869.95;1750561;80;20826;-82
2022/10/10 05:26:30;;;;;;;19.05;11.35;;;;;;;1.88;100.00;98873.55;1761489;80;20992;-83
2022/10/10 05:28:56;;;;;;;15.45;10.43;;;;;;;1.88;100.00;98866.86;1782106;80;22016;-82
2022/10/10 05:31:22;;;;;;;29.50;12.60;;;;;;;1.96;100.00;98874.17;1731376;81;20896;-83
2022/10/10 05:33:48;;;;;;;22.37;12.07;;;;;;;2.06;100.00;98872.47;1751240;80;22539;-84
2022/10/10 05:36:14;;;;;;;29.65;13.20;;;;;;;2.14;100.00;98873.61;1747497;80;20884;-82
2022/10/10 05:38:40;;;;;;;22.95;12.88;;;;;;;2.22;100.00;98875.23;1745058;81;21004;-82
2022/10/10 05:41:06;;;;;;;21.95;11.22;;;;;;;2.27;100.00;98880.80;1753368;80;21405;-83
2022/10/10 05:43:32;;;;;;;22.52;11.70;;;;;;;2.32;100.00;98877.52;1737707;80;21117;-83
2022/10/10 05:45:58;;;;;;;23.05;11.05;;;;;;;2.35;100.00;98873.09;1750927;80;20956;-86
2022/10/10 05:48:24;;;;;;;22.20;10.30;;;;;;;2.39;100.00;98876.46;1760406;80;20856;-83
2022/10/10 05:50:53;;;;;;;55.78;35.68;;;;;;;2.40;100.00;98873.30;1753101;81;20893;-86
2022/10/10 05:53:20;;;;;;;30.00;15.75;;;;;;;2.39;100.00;98873.79;1742606;81;21167;-85
2022/10/10 05:55:46;;;;;;;21.05;11.43;;;;;;;2.45;100.00;98878.33;1727225;80;21052;-85
2022/10/10 05:58:12;;;;;;;13.22;9.05;;;;;;;2.49;100.00;98878.23;1748599;80;21535;-86
2022/10/10 06:00:43;;;;;;;14.38;10.28;;;;;;;2.55;100.00;98883.25;1754914;80;21078;-83
2022/10/10 06:03:12;;;;;;;15.95;10.23;;;;;;;2.62;100.00;98880.58;1749746;80;21000;-83
2022/10/10 06:05:37;;;;;;;17.62;9.93;;;;;;;2.66;100.00;98878.63;1715570;80;21061;-86
2022/10/10 06:08:03;;;;;;;16.25;9.98;;;;;;;2.71;100.00;98877.99;1751351;79;21694;-82
2022/10/10 06:10:29;;;;;;;15.15;9.88;;;;;;;2.83;100.00;98881.70;1757280;79;21069;-86
2022/10/10 06:12:55;;;;;;;20.08;9.83;;;;;;;3.06;100.00;98875.34;1756008;79;20877;-84
2022/10/10 06:15:21;;;;;;;19.12;9.98;;;;;;;3.53;100.00;98878.68;1756705;79;21457;-85
2022/10/10 06:17:47;;;;;;;20.65;10.48;;;;;;;3.73;100.00;98877.23;1753523;79;21112;-83
2022/10/10 06:20:13;;;;;;;15.70;9.53;;;;;;;3.83;100.00;98879.44;1759313;79;20910;-83
2022/10/10 06:22:39;;;;;;;18.00;11.28;;;;;;;3.93;100.00;98875.27;1744326;79;21090;-83
2022/10/10 06:25:05;;;;;;;19.05;9.75;;;;;;;4.35;100.00;98876.09;1747334;79;21559;-86
2022/10/10 06:27:31;;;;;;;34.78;11.05;;;;;;;4.53;100.00;98874.30;1752731;79;21086;-83
2022/10/10 06:29:57;;;;;;;20.25;14.00;;;;;;;4.69;100.00;98874.23;1750410;79;21184;-86
2022/10/10 06:32:23;;;;;;;19.45;10.32;;;;;;;4.72;100.00;98868.97;1741876;79;21570;-86
2022/10/10 06:34:49;;;;;;;18.05;9.40;;;;;;;4.79;100.00;98872.42;1744788;79;20868;-86
2022/10/10 06:37:15;;;;;;;16.30;9.48;;;;;;;4.87;100.00;98872.14;1743155;81;20955;-86
2022/10/10 06:39:41;;;;;;;17.23;9.08;;;;;;;4.92;100.00;98869.58;1749849;79;20897;-83
2022/10/10 06:42:07;;;;;;;16.17;10.18;;;;;;;4.97;100.00;98866.25;1743780;81;21160;-86
2022/10/10 06:44:33;;;;;;;24.15;8.43;;;;;;;5.02;100.00;98863.69;1746150;79;20884;-86
2022/10/10 06:46:58;;;;;;;14.53;8.90;;;;;;;5.10;100.00;98857.50;1747289;79;20900;-86
2022/10/10 06:49:24;;;;;;;19.12;10.55;;;;;;;5.23;100.00;98855.73;1744860;81;20893;-84
2022/10/10 06:51:50;;;;;;;15.53;9.98;;;;;;;5.34;100.00;98858.47;1752083;79;20873;-85
2022/10/10 06:54:16;;;;;;;16.25;9.30;;;;;;;5.52;100.00;98860.31;1748452;81;21555;-86
2022/10/10 06:56:42;;;;;;;27.30;10.95;;;;;;;5.88;100.00;98858.05;1737642;81;21137;-86
2022/10/10 06:59:08;;;;;;;28.67;11.08;;;;;;;6.04;100.00;98855.27;1737727;81;21504;-84
2022/10/10 07:01:34;;;;;;;29.57;14.87;;;;;;;6.16;100.00;98852.63;1742717;79;20915;-86
2022/10/10 07:04:00;;;;;;;27.35;14.43;;;;;;;6.51;100.00;98851.33;1744325;79;21082;-84
2022/10/10 07:06:26;;;;;;;17.80;12.00;;;;;;;7.34;100.00;98850.19;1743788;79;21174;-83
2022/10/10 07:08:52;;;;;;;21.23;11.85;;;;;;;9.47;100.00;98842.06;1739021;79;21452;-84
2022/10/10 07:11:18;;;;;;;23.67;11.65;;;;;;;9.47;100.00;98842.06;1747189;81;20963;-84
2022/10/10 07:13:44;;;;;;;19.17;11.03;;;;;;;10.50;100.00;98849.34;1752327;79;20932;-85
2022/10/10 07:16:10;;;;;;;19.77;9.90;;;;;;;11.49;95.40;98848.60;1753891;79;21070;-85
2022/10/10 07:18:36;;;;;;;15.13;9.65;;;;;;;12.06;94.70;98835.50;1765652;79;21365;-87
2022/10/10 07:21:03;;;;;;;14.38;8.80;;;;;;;12.80;92.87;98841.73;1755610;81;21016;-85
2022/10/10 07:23:30;;;;;;;17.35;8.73;;;;;;;13.42;91.45;98851.44;1742913;81;21105;-85
2022/10/10 07:26:03;;;;;;;14.45;9.10;;;;;;;14.01;88.00;98843.77;1745494;79;21078;-87
2022/10/10 07:28:29;;;;;;;18.90;10.95;;;;;;;14.84;83.78;98844.80;1743223;79;21100;-87
2022/10/10 07:31:00;;;;;;;14.20;9.88;;;;;;;15.06;83.57;98838.31;1742015;81;20903;-87
2022/10/10 07:33:26;;;;;;;28.25;12.90;;;;;;;15.87;81.09;98837.08;1748308;79;21094;-87
2022/10/10 07:35:53;;;;;;;26.05;10.10;;;;;;;16.25;82.72;98840.65;1714154;81;21150;-87
2022/10/10 07:38:19;;;;;;;12.65;8.10;;;;;;;17.46;77.80;98847.28;1755595;81;21063;-85
2022/10/10 07:40:45;;;;;;;13.62;6.58;;;;;;;17.80;78.84;98837.04;1754452;79;21685;-85
2022/10/10 07:43:11;;;;;;;16.07;8.30;;;;;;;18.25;74.82;98836.00;1743827;79;21567;-86
2022/10/10 07:45:37;;;;;;;11.05;7.47;;;;;;;18.55;73.47;98830.91;1743573;79;21558;-88
2022/10/10 07:48:04;;;;;;;10.98;5.83;;;;;;;19.25;68.96;98832.95;1744514;79;20967;-85
2022/10/10 07:50:29;;;;;;;12.03;6.03;;;;;;;18.71;69.63;98826.67;1743161;81;21732;-88
2022/10/10 07:52:55;;;;;;;13.65;6.05;;;;;;;17.81;72.76;98827.70;1750197;79;20932;-87
2022/10/10 07:55:21;;;;;;;9.15;6.37;;;;;;;17.36;69.60;98825.58;1755010;79;21080;-88
2022/10/10 07:57:47;;;;;;;6.58;5.20;;;;;;;18.10;70.95;98821.83;1754417;80;20877;-88
2022/10/10 08:00:14;;;;;;;10.23;5.55;;;;;;;19.13;65.54;98829.41;1761247;79;21063;-85
2022/10/10 08:02:41;;;;;;;6.58;5.12;;;;;;;19.87;62.46;98825.16;1751079;79;21052;-86
2022/10/10 08:05:07;;;;;;;8.08;4.85;;;;;;;20.31;60.96;98823.23;1740012;80;21050;-88
2022/10/10 08:07:33;;;;;;;6.75;4.10;;;;;;;20.95;59.68;98826.10;1750036;80;21150;-88
2022/10/10 08:10:01;;;;;;;7.42;4.40;;;;;;;21.55;54.82;98830.02;1742434;80;21661;-89
2022/10/10 08:12:27;;;;;;;28.30;12.07;;;;;;;22.06;54.11;98822.56;1752704;80;21048;-86
2022/10/10 08:14:53;;;;;;;17.62;8.05;;;;;;;22.73;52.35;98809.64;1736587;81;21744;-86
2022/10/10 08:17:19;;;;;;;14.68;7.08;;;;;;;22.99;51.58;98806.08;1710221;81;20912;-89
2022/10/10 08:19:45;;;;;;;6.45;4.08;;;;;;;23.50;48.52;98797.45;1749334;81;21347;-87
2022/10/10 08:22:11;;;;;;;7.55;4.25;;;;;;;24.17;44.42;98801.53;1744435;80;20936;-86
2022/10/10 08:24:37;;;;;;;9.45;4.35;;;;;;;24.12;45.06;98796.27;1745259;80;21381;-89
2022/10/10 08:27:03;;;;;;;7.05;3.80;;;;;;;24.35;43.57;98791.80;1741735;80;20943;-87
2022/10/10 08:29:31;;;;;;;8.80;4.60;;;;;;;24.42;40.71;98788.44;1752438;81;20892;-86
2022/10/10 08:31:57;;;;;;;8.50;3.55;;;;;;;25.15;39.66;98787.27;1756175;80;21936;-89
2022/10/10 08:34:23;;;;;;;6.85;3.75;;;;;;;25.53;41.12;98786.02;1771424;80;20960;-87
2022/10/10 08:36:49;;;;;;;8.03;3.27;;;;;;;26.57;37.19;98777.19;1744244;80;20876;-87
2022/10/10 08:39:16;;;;;;;9.58;3.37;;;;;;;26.00;37.45;98774.04;1764604;80;22398;-88
2022/10/10 08:41:55;;;;;;;7.10;3.40;;;;;;;23.89;37.59;98766.91;1749508;80;21063;-88
2022/10/10 08:44:47;;;;;;;5.00;3.67;;;;;;;22.21;41.18;98764.01;1719464;81;21233;-88
2022/10/10 08:47:18;;;;;;;8.88;3.98;;;;;;;21.04;43.48;98760.19;1662959;85;21169;-86
2022/10/10 08:49:58;;;;;;;9.18;4.30;;;;;;;19.86;44.21;98756.16;1660276;84;21057;-85
2022/10/10 08:52:41;;;;;;;6.72;3.83;;;;;;;18.95;46.10;98759.05;1693399;80;21080;-86
2022/10/10 08:55:25;;;;;;;5.62;3.83;;;;;;;18.07;46.73;98755.27;1764660;79;21121;-85
2022/10/10 08:58:17;;;;;;;8.23;5.30;;;;;;;17.28;47.90;98750.97;1763937;79;21290;-87
2022/10/10 09:00:55;;;;;;;5.40;3.60;;;;;;;16.64;49.15;98748.61;1770405;79;21064;-87
2022/10/10 09:03:27;;;;;;;6.47;4.20;;;;;;;16.11;49.60;98746.80;1769420;79;21027;-84
2022/10/10 09:06:21;;;;;;;6.47;4.00;;;;;;;15.69;50.49;98745.80;1772474;80;21672;-85
2022/10/10 09:09:10;;;;;;;7.37;4.28;;;;;;;15.40;51.87;98735.80;1769727;79;21464;-87
2022/10/10 09:11:48;;;;;;;7.00;4.53;;;;;;;15.08;52.08;98735.66;1774300;79;21930;-87
2022/10/10 09:14:44;;;;;;;7.37;4.58;;;;;;;14.84;52.70;98737.02;1779173;79;20995;-87
2022/10/10 09:17:22;;;;;;;8.00;4.25;;;;;;;14.63;53.59;98729.08;1739075;80;20987;-87
2022/10/10 09:20:22;;;;;;;7.57;4.23;;;;;;;14.49;54.21;98730.03;1750981;81;21003;-85
2022/10/10 09:23:09;;;;;;;11.20;5.62;;;;;;;14.40;54.63;98733.91;1727364;82;21033;-84
2022/10/10 09:25:44;;;;;;;8.30;4.58;;;;;;;14.35;55.95;98730.66;1747758;80;21095;-87
2022/10/10 09:28:21;;;;;;;8.48;3.98;;;;;;;14.32;55.85;98730.44;1748386;79;21497;-84
2022/10/10 09:30:53;;;;;;;6.72;3.92;;;;;;;14.28;56.94;98723.94;1739137;80;21074;-87
2022/10/10 09:33:39;;;;;;;6.97;4.20;;;;;;;14.13;58.82;98723.52;1720829;80;21040;-87
2022/10/10 09:36:12;;;;;;;11.38;5.28;;;;;;;14.09;58.04;98717.00;1752522;80;21640;-84
2022/10/10 09:38:45;;;;;;;7.60;4.08;;;;;;;14.09;58.43;98709.63;1739854;80;21299;-84
2022/10/10 09:41:22;;;;;;;7.85;4.67;;;;;;;14.10;60.04;98714.56;1712744;81;21044;-87
2022/10/10 09:43:49;;;;;;;5.47;4.33;;;;;;;14.09;60.76;98704.73;1765555;80;21561;-87
2022/10/10 09:46:15;;;;;;;8.55;4.55;;;;;;;14.12;59.65;98711.00;1748137;80;21034;-84
2022/10/10 09:48:41;;;;;;;7.58;4.78;;;;;;;14.12;59.79;98709.63;1742494;80;20874;-84
2022/10/10 09:51:14;;;;;;;8.23;4.78;;;;;;;14.18;59.71;98705.74;1734257;80;21912;-85
2022/10/10 09:53:41;;;;;;;7.28;4.33;;;;;;;14.18;61.04;98704.38;1740891;80;21598;-85
2022/10/10 09:56:16;;;;;;;6.15;4.42;;;;;;;14.21;60.15;98699.73;1741651;81;21591;-87
2022/10/10 09:58:45;;;;;;;7.58;4.42;;;;;;;14.23;60.42;98700.26;1740221;80;21297;-87
2022/10/10 10:01:22;;;;;;;;;;;;;;;14.24;60.85;98694.25;1742953;80;21409;-85
2022/10/10 10:04:11;;;;;;;13.90;5.50;;;;;;;14.26;61.46;98692.86;1746705;80;21271;-87
2022/10/10 10:06:42;;;;;;;11.90;5.53;;;;;;;14.36;60.33;98694.70;1739143;80;21070;-87
2022/10/10 10:09:19;;;;;;;13.20;6.85;;;;;;;14.53;60.23;98689.64;1740028;81;21405;-87
2022/10/10 10:11:46;;;;;;;9.83;5.05;;;;;;;14.67;59.97;98682.93;1739603;81;21393;-85
2022/10/10 10:14:28;;;;;;;7.65;4.15;;;;;;;14.79;60.73;98677.08;1742367;81;21122;-87
2022/10/10 10:16:55;;;;;;;7.70;4.30;;;;;;;14.81;59.77;98683.86;1746709;80;21160;-86
2022/10/10 10:19:35;;;;;;;7.55;5.20;;;;;;;14.83;60.36;98676.19;1741825;80;21499;-85
2022/10/10 10:22:00;;;;;;;7.30;4.50;;;;;;;14.84;60.85;98672.36;1739786;80;21102;-87
2022/10/10 10:24:35;;;;;;;8.28;4.90;;;;;;;14.86;60.85;98667.97;1743126;80;21019;-85
2022/10/10 10:27:09;;;;;;;7.87;4.67;;;;;;;14.95;59.96;98662.13;1745322;80;21652;-85
2022/10/10 10:29:36;;;;;;;5.92;3.85;;;;;;;15.10;59.76;98667.94;1750566;81;21153;-85
2022/10/10 10:32:23;;;;;;;11.53;5.03;;;;;;;15.24;59.75;98651.91;1772717;80;20958;-86
2022/10/10 10:35:25;;;;;;;8.68;4.83;;;;;;;15.30;60.01;98656.76;1762216;80;21334;-85
2022/10/10 10:38:12;;;;;;;18.67;6.47;;;;;;;15.34;59.86;98654.23;1748525;80;21420;-87
2022/10/10 10:40:43;;;;;;;9.05;5.05;;;;;;;15.31;59.87;98643.92;1751005;80;21495;-87
2022/10/10 10:43:47;;;;;;;7.65;3.90;;;;;;;15.31;58.93;98640.63;1749069;80;21666;-85
2022/10/10 10:46:48;;;;;;;5.95;2.95;;;;;;;15.34;58.37;98644.13;1750855;80;21042;-85
2022/10/10 10:49:30;;;;;;;6.70;3.10;;;;;;;15.33;58.79;98634.31;1746166;80;21071;-85
2022/10/10 10:52:28;;;;;;;5.95;4.15;;;;;;;15.32;55.08;98632.70;1716344;80;21173;-85
2022/10/10 10:55:14;;;;;;;10.45;3.98;;;;;;;15.39;57.51;98634.51;1744954;81;21083;-83
2022/10/10 10:58:12;;;;;;;6.28;3.70;;;;;;;15.43;55.85;98627.33;1735148;80;21156;-85
2022/10/10 11:00:51;;;;;;;5.40;3.40;;;;;;;15.43;55.33;98625.97;1744468;80;21458;-86
2022/10/10 11:03:28;;;;;;;6.20;3.70;;;;;;;15.51;56.62;98623.13;1758210;80;21763;-86
2022/10/10 11:06:18;;;;;;;6.80;3.95;;;;;;;15.53;55.79;98620.34;1760451;80;21147;-86
2022/10/10 11:09:02;;;;;;;8.20;5.10;;;;;;;15.54;56.57;98614.32;1751558;80;21535;-84
2022/10/10 11:11:45;;;;;;;10.53;5.53;;;;;;;15.61;58.34;98613.98;1737638;81;21147;-86
2022/10/10 11:14:46;;;;;;;8.48;4.72;;;;;;;15.66;59.87;98604.34;1741738;81;21006;-86
2022/10/10 11:17:20;;;;;;;8.75;5.37;;;;;;;15.71;60.41;98599.59;1751203;80;21001;-87
2022/10/10 11:20:02;;;;;;;8.08;6.03;;;;;;;15.82;60.21;98593.42;1744283;81;21062;-86
2022/10/10 11:22:37;;;;;;;8.88;5.15;;;;;;;15.86;61.62;98593.06;1750472;80;21135;-86
2022/10/10 11:25:17;;;;;;;9.50;5.55;;;;;;;15.93;61.42;98594.85;1743793;81;22020;-87
2022/10/10 11:27:54;;;;;;;6.28;4.30;;;;;;;16.00;61.94;98586.27;1770912;80;21099;-87
2022/10/10 11:30:25;;;;;;;8.70;5.17;;;;;;;16.08;61.72;98589.11;1750625;80;21062;-85
2022/10/10 11:33:13;;;;;;;8.08;4.95;;;;;;;16.13;61.55;98590.92;1751510;80;21039;-87
2022/10/10 11:35:47;;;;;;;9.45;4.50;;;;;;;16.17;61.94;98586.49;1751568;80;21063;-85
2022/10/10 11:38:39;;;;;;;8.20;4.95;;;;;;;16.18;61.54;98577.73;1745162;80;21112;-87
2022/10/10 11:41:21;;;;;;;7.97;4.92;;;;;;;16.16;61.77;98572.57;1740330;81;21593;-87